• Join FlightAware (Why Join?)
  • Login
  • US Flag 
03:21AM EDT


 

Airport Tracker/Info


-or-


 

Live Flight TrackerFlight Track Log ✈ AWI3759 ✈ 22-May-2013 ✈ CYYZ - KCLT

Flight Track Log - Related Links

Times and Time Zones

All times are in EDT time to prevent confusion due to time zone crossing. See the AWI3759 flight status page for this flight to view local times or setup timezone preferences in your user account.

Time Position Orientation Groundspeed Altitude Reporting Facility
EDT Latitude Longitude Course Direction KTS MPH feet Rate Location/Type
05:08PM 43.6333 -79.6167 194° South 160 184 1,700  Level Toronto Center
05:09PM 43.6000 -79.6833 235° Southwest 200 230 3,400 1,800 Climbing Toronto Center
05:10PM 43.3730 -79.6841 188° South  Level Estimated
05:10PM 43.5500 -79.7000 194° South 230 265 5,400  Level Toronto Center
05:11PM 43.2643 -79.7003 185° South  Level FlightAware Approximate
05:11PM 43.4833 -79.7000 180° South 250 288 8,400  Level Toronto Center
05:12PM 43.1624 -79.7116 185° South  Level FlightAware Approximate
05:12PM 43.4167 -79.7000 180° South 250 288 10,700  Level Toronto Center
05:13PM 43.0619 -79.7349 194° South  Level FlightAware Approximate
05:13PM 43.3333 -79.7167 188° South 260 299 12,500  Level Toronto Center
05:14PM 43.2667 -79.7167 180° South 270 311 14,200 1,500 Climbing Toronto Center
05:15PM 43.1833 -79.7167 180° South 290 334 15,500 1,440 Climbing Toronto Center
05:16PM 43.0833 -79.7167 180° South 320 368 17,100 1,560 Climbing Toronto Center
05:17PM 43.0000 -79.7500 196° South 320 368 18,700 1,320 Climbing Toronto Center
05:18PM 42.9167 -79.7500 180° South 330 380 19,800 1,200 Climbing Toronto Center
05:19PM 42.8167 -79.7667 187° South 340 391 21,100 1,080 Climbing Toronto Center
05:20PM 42.7167 -79.8000 194° South 340 391 22,000 900 Climbing Toronto Center
05:21PM 42.6333 -79.8167 188° South 350 403 23,000 900 Climbing Toronto Center
05:22PM 42.5581 -79.8531 200° South 353 406 23,800 900 Climbing Cleveland Center
05:23PM 42.4517 -79.8769 189° South 353 406 24,800 900 Climbing Cleveland Center
05:24PM 42.3667 -79.9369 208° Southwest 353 406 25,600 720 Climbing Cleveland Center
05:25PM 42.2731 -79.9828 200° South 353 406 26,300 660 Climbing Cleveland Center
05:26PM 42.1756 -80.0283 199° South 362 417 27,000 540 Climbing Cleveland Center
05:27PM 42.0903 -80.0711 200° South 362 417 27,400 540 Climbing Cleveland Center
05:28PM 41.9944 -80.1167 199° South 369 425 28,100 600 Climbing Cleveland Center
05:29PM 41.8989 -80.1619 199° South 369 425 28,700 420 Climbing Cleveland Center
05:30PM 41.8031 -80.2072 199° South 369 425 29,000 420 Climbing Cleveland Center
05:31PM 41.7053 -80.2550 200° South 369 425 29,600 780 Climbing Cleveland Center
05:32PM 41.6031 -80.3028 199° South 364 419 30,600 840 Climbing Cleveland Center
05:33PM 41.5117 -80.3447 199° South 359 413 31,300 600 Climbing Cleveland Center
05:34PM 41.4178 -80.3894 200° South 359 413 31,800 300 Climbing Cleveland Center
05:35PM 41.3242 -80.4367 201° Southwest 364 419 32,000 60 Climbing Cleveland Center
05:36PM 41.2283 -80.4783 198° South 364 419 32,000  Level Cleveland Center
05:37PM 41.1303 -80.5253 200° South 370 426 32,000  Level Cleveland Center
05:38PM 41.0364 -80.5694 200° South 370 426 32,000  Level Cleveland Center
05:39PM 40.9406 -80.6133 199° South 370 426 32,000  Level Cleveland Center
05:40PM 40.8531 -80.6544 200° South 370 426 32,000  Level Cleveland Center
05:41PM 40.7550 -80.6983 199° South 375 432 32,000  Level Cleveland Center
05:42PM 40.6528 -80.7472 200° South 370 426 32,000  Level Cleveland Center
05:43PM 40.5653 -80.7853 198° South 370 426 32,000  Level Cleveland Center
05:44PM 40.4692 -80.8314 200° South 370 426 32,000  Level Cleveland Center
05:45PM 40.3733 -80.8747 199° South 370 426 32,000  Level Cleveland Center
05:46PM 40.2750 -80.9178 198° South 370 426 32,000  Level Cleveland Center
05:48PM 40.0728 -81.0108 199° South 368 423 32,000  Level Indianapolis Center
05:49PM 39.9747 -81.0547 199° South 368 423 32,000  Level Indianapolis Center
05:50PM 39.8739 -81.1003 199° South 372 428 32,000  Level Indianapolis Center
05:51PM 39.7769 -81.1444 199° South 368 423 32,000  Level Indianapolis Center
05:52PM 39.6781 -81.1883 199° South 374 430 32,000  Level Indianapolis Center
05:53PM 39.5606 -81.2406 199° South 371 427 32,000  Level Indianapolis Center
05:54PM 39.4617 -81.2833 198° South 374 430 32,000  Level Indianapolis Center
05:55PM 39.3639 -81.3275 199° South 373 429 32,000  Level Indianapolis Center
05:56PM 39.2656 -81.3711 199° South 373 429 32,000  Level Indianapolis Center
05:57PM 39.1672 -81.4147 199° South 374 430 32,000  Level Indianapolis Center
05:58PM 39.0700 -81.4567 199° South 370 426 32,000  Level Indianapolis Center
05:59PM 38.9514 -81.5092 199° South 375 432 32,000  Level Indianapolis Center
06:00PM 38.8553 -81.5525 199° South 372 428 32,000  Level Indianapolis Center
06:01PM 38.7497 -81.5992 199° South 372 428 32,000  Level Indianapolis Center
06:02PM 38.6486 -81.6367 196° South 375 432 32,000  Level Indianapolis Center
06:03PM 38.5581 -81.6561 190° South 384 442 32,000  Level Indianapolis Center
06:04PM 38.4339 -81.6844 190° South 380 437 32,000  Level Indianapolis Center
06:05PM 38.3289 -81.7083 190° South 385 443 32,000  Level Indianapolis Center
06:06PM 38.2242 -81.7328 190° South 384 442 32,000  Level Indianapolis Center
06:07PM 38.1192 -81.7561 190° South 384 442 32,000  Level Indianapolis Center
06:08PM 38.0153 -81.7803 190° South 382 440 32,000  Level Indianapolis Center
06:09PM 37.9111 -81.8128 194° South 386 444 32,000  Level Indianapolis Center
06:10PM 37.7936 -81.8567 196° South 386 444 32,000  Level Indianapolis Center
06:11PM 37.6872 -81.8356 171° South 395 455 32,000  Level Indianapolis Center
06:12PM 37.5833 -81.7897 161° South 395 455 32,000  Level Indianapolis Center
06:13PM 37.4794 -81.7444 161° South 394 453 32,000 -720 Level Indianapolis Center
06:15PM 37.3553 -81.6933 162° South 399 459 30,600 -1,440 Descending Indianapolis Center
06:16PM 37.2431 -81.6686 170° South 406 467 29,100 -1,320 Descending Indianapolis Center
06:17PM 37.1344 -81.6472 171° South 398 458 28,000 -720 Descending Indianapolis Center
06:18PM 37.0344 -81.6378 176° South 367 422 27,700 -960 Descending Indianapolis Center
06:19PM 36.9297 -81.6350 179° South 373 429 26,100 -1,560 Descending Indianapolis Center
06:20PM 36.8189 -81.6308 178° South 392 451 24,600 -1,080 Descending Indianapolis Center
06:21PM 36.7081 -81.6258 178° South 396 456 24,000 -300 Descending Indianapolis Center
06:22PM 36.5881 -81.6222 179° South 372 428 24,000  Level Indianapolis Center
06:23PM 36.4953 -81.6164 177° South 353 406 24,000  Level Atlanta Center
06:24PM 36.3925 -81.5911 169° South 341 392 24,000 -780 Level Atlanta Center
06:25PM 36.2942 -81.5658 168° South 346 398 22,500 -1,800 Descending Atlanta Center
06:26PM 36.1914 -81.5406 169° South 367 422 20,500 -2,040 Descending Atlanta Center
06:27PM 36.0969 -81.5153 168° South 372 428 18,500 -2,040 Descending Atlanta Center
06:28PM 35.9983 -81.4900 168° South 364 419 16,500 -2,100 Descending Atlanta Center
06:28PM 35.9356 -81.4767 170° South 352 405 15,100 -2,040 Descending Atlanta Center
06:29PM 35.9042 -81.4675 167° South 349 402 14,500 -1,860 Descending Atlanta Center
06:29PM 35.8494 -81.4539 169° South 346 398 13,400 -1,920 Descending Atlanta Center
06:30PM 35.8161 -81.4447 167° South 343 395 12,600 -1,680 Descending Atlanta Center
06:30PM 35.7658 -81.4333 170° South 302 348 11,700 -1,500 Descending Atlanta Center
06:31PM 35.7342 -81.4242 167° South 310 357 11,100 -720 Descending Atlanta Center
06:31PM 35.6903 -81.4128 168° South 269 310 11,000 -120 Descending Atlanta Center
06:32PM 35.6608 -81.4061 170° South 284 327 11,000 -120 Level Atlanta Center
06:33PM 35.6039 -81.3797 159° South 279 321 10,900 -540 Descending Atlanta Center
06:33PM 35.5831 -81.3781 176° South 279 321 10,500 -1,800 Descending Atlanta Center
06:34PM 35.5325 -81.3567 161° South 275 316 9,100 -1,740 Descending Atlanta Center
06:34PM 35.5094 -81.3547 176° South 279 321 8,800 -1,080 Descending Atlanta Center
06:35PM 35.4667 -81.3078 138° Southeast 243 280 7,900 -960 Descending Atlanta Center
06:36PM 35.4611 -81.2467 96° East 238 274 7,200 -840 Descending Atlanta Center
06:36PM 35.4564 -81.2189 102° East 220 253 7,000 -540 Descending Atlanta Center
06:37PM 35.4531 -81.1631 94° East 244 281 6,700 -600 Descending Atlanta Center
06:37PM 35.4503 -81.1325 96° East 237 273 6,400 -1,020 Descending Atlanta Center
06:38PM 35.4489 -81.0764 92° East 240 276 5,700 -900 Descending Atlanta Center
06:38PM 35.4461 -81.0536 99° East 237 273 5,500 -720 Descending Atlanta Center
06:39PM 35.4431 -81.0078 95° East 185 213 5,000 -540 Descending Atlanta Center
06:40PM 35.3964 -80.9789 153° Southeast 178 205 4,600 -900 Descending Atlanta Center
06:41PM 35.3442 -80.9808 182° South 174 200 3,200 -1,380 Descending Atlanta Center